Time;durP1;ratioP1;P1;durP2;ratioP2;P2;SDS_P1;SDS_P2;PMS_P1;PMS_P2;Temp;Humidity;BMP_temperature;BMP_pressure;BME280_temperature;BME280_humidity;BME280_pressure;Samples;Min_cycle;Max_cycle;Signal;HPM_P1;HPM_P2
2021/04/09 00:00:05;;;;;;;6.53;5.45;;;;;;;9.46;47.26;102420.85;1762872;81;21156;-48
2021/04/09 00:02:35;;;;;;;7.70;4.83;;;;;;;9.45;47.34;102417.38;1754647;81;21161;-48
2021/04/09 00:05:11;;;;;;;7.87;6.10;;;;;;;9.47;47.70;102422.16;1761357;81;21141;-45
2021/04/09 00:07:39;;;;;;;9.45;5.35;;;;;;;9.49;47.68;102423.03;1761025;81;21624;-48
2021/04/09 00:10:09;;;;;;;14.73;5.55;;;;;;;9.52;47.62;102417.00;1767823;81;21141;-45
2021/04/09 00:12:38;;;;;;;8.80;6.00;;;;;;;9.54;47.54;102423.93;1765292;81;21188;-48
2021/04/09 00:15:09;;;;;;;8.30;5.87;;;;;;;9.58;47.57;102428.30;1763001;81;21117;-47
2021/04/09 00:17:38;;;;;;;9.45;6.28;;;;;;;9.58;47.64;102428.75;1762858;81;21585;-48
2021/04/09 00:20:08;;;;;;;6.67;5.70;;;;;;;9.56;47.83;102429.17;1762817;81;21156;-48
2021/04/09 00:22:36;;;;;;;6.75;5.35;;;;;;;9.53;48.01;102432.60;1763380;81;21283;-49
2021/04/09 00:25:09;;;;;;;7.37;6.15;;;;;;;9.49;48.06;102433.44;1762678;81;21302;-45
2021/04/09 00:27:37;;;;;;;8.20;6.20;;;;;;;9.45;48.13;102435.98;1763043;81;21165;-48
2021/04/09 00:30:08;;;;;;;7.45;6.05;;;;;;;9.41;48.45;102441.59;1765133;81;21173;-50
2021/04/09 00:32:36;;;;;;;7.00;5.77;;;;;;;9.38;48.55;102440.23;1762401;81;21188;-49
2021/04/09 00:35:05;;;;;;;7.78;6.72;;;;;;;9.33;48.79;102436.74;1765156;81;21888;-51
2021/04/09 00:37:33;;;;;;;9.65;7.30;;;;;;;9.30;49.03;102439.72;1766010;81;21601;-46
2021/04/09 00:40:01;;;;;;;9.58;6.95;;;;;;;9.29;49.37;102442.77;1765985;81;21597;-50
2021/04/09 00:42:29;;;;;;;8.90;6.67;;;;;;;9.29;49.55;102442.77;1752608;81;21149;-48
2021/04/09 00:44:58;;;;;;;8.70;6.97;;;;;;;9.31;49.58;102444.95;1765921;81;21144;-46
2021/04/09 00:47:26;;;;;;;9.05;6.85;;;;;;;9.36;49.60;102445.85;1769885;81;21148;-48
2021/04/09 00:49:53;;;;;;;10.20;7.37;;;;;;;9.39;49.51;102445.89;1762677;81;21159;-45
2021/04/09 00:52:22;;;;;;;12.33;7.50;;;;;;;9.41;49.33;102448.08;1763316;81;21173;-48
2021/04/09 00:54:50;;;;;;;13.45;7.97;;;;;;;9.43;49.22;102454.16;1763101;81;21149;-50
2021/04/09 00:57:19;;;;;;;10.93;7.37;;;;;;;9.41;49.39;102445.48;1784607;79;21175;-49
2021/04/09 00:59:47;;;;;;;12.28;7.78;;;;;;;9.40;49.41;102454.53;1776276;81;21238;-46
2021/04/09 01:02:15;;;;;;;12.10;8.10;;;;;;;9.31;49.49;102457.94;1775975;81;21129;-48
2021/04/09 01:04:43;;;;;;;11.08;7.47;;;;;;;9.34;49.45;102455.36;1780197;79;21133;-45
2021/04/09 01:07:11;;;;;;;10.95;7.83;;;;;;;9.23;49.80;102460.01;1789217;79;21145;-50
2021/04/09 01:09:39;;;;;;;11.10;8.53;;;;;;;9.27;50.00;102456.17;1733836;83;21614;-46
2021/04/09 01:12:09;;;;;;;11.80;7.37;;;;;;;9.28;50.29;102457.89;1779675;79;21661;-47
2021/04/09 01:14:37;;;;;;;9.45;7.42;;;;;;;9.28;50.55;102461.78;1784339;79;21209;-45
2021/04/09 01:17:21;;;;;;;10.82;8.05;;;;;;;9.31;50.67;102464.44;1783515;79;21569;-48
2021/04/09 01:20:14;;;;;;;10.85;7.72;;;;;;;9.34;50.67;102464.45;1686552;84;21167;-46
2021/04/09 01:23:26;;;;;;;12.65;8.73;;;;;;;9.43;50.74;102464.98;1771521;79;22971;-45
2021/04/09 01:26:31;;;;;;;9.45;7.78;;;;;;;9.39;50.59;102469.28;1740037;82;21167;-48
2021/04/09 01:29:28;;;;;;;9.65;7.40;;;;;;;9.37;50.54;102473.59;1736280;82;21152;-46
2021/04/09 01:32:05;;;;;;;11.88;7.70;;;;;;;9.33;50.55;102471.81;1737618;82;21136;-48
2021/04/09 01:34:36;;;;;;;9.28;7.55;;;;;;;9.27;50.69;102475.65;1744521;82;21112;-45
2021/04/09 01:37:26;;;;;;;11.20;8.45;;;;;;;9.21;50.93;102472.95;1738028;82;21550;-46
2021/04/09 01:40:00;;;;;;;9.55;7.55;;;;;;;9.19;51.12;102479.86;1724793;82;21168;-49
2021/04/09 01:42:28;;;;;;;13.28;8.33;;;;;;;9.18;51.38;102483.33;1739426;82;21573;-46
2021/04/09 01:44:56;;;;;;;10.78;8.43;;;;;;;9.19;51.55;102482.45;1740386;82;21153;-49
2021/04/09 01:47:25;;;;;;;10.53;8.33;;;;;;;9.23;51.73;102482.09;1738753;82;21192;-47
2021/04/09 01:49:56;;;;;;;11.22;8.75;;;;;;;9.24;51.81;102488.59;1732630;81;21145;-45
2021/04/09 01:52:26;;;;;;;11.03;8.85;;;;;;;9.25;51.82;102490.34;1741852;82;21169;-46
2021/04/09 01:54:56;;;;;;;13.75;9.43;;;;;;;9.24;51.78;102492.48;1734103;82;21191;-49
2021/04/09 01:57:23;;;;;;;16.73;10.20;;;;;;;9.23;51.79;102493.35;1690950;84;21334;-45
2021/04/09 01:59:51;;;;;;;13.60;9.20;;;;;;;9.21;51.84;102492.89;1705846;84;21659;-47
2021/04/09 02:02:20;;;;;;;12.93;8.95;;;;;;;9.19;51.81;102489.40;1676134;84;21604;-50
2021/04/09 02:04:48;;;;;;;11.10;9.15;;;;;;;9.19;51.80;102500.63;1705148;84;21188;-45
2021/04/09 02:07:19;;;;;;;12.82;8.28;;;;;;;9.20;51.83;102501.09;1705076;84;21659;-49
2021/04/09 02:09:52;;;;;;;11.55;8.85;;;;;;;9.26;51.70;102499.86;1771820;79;22508;-48
2021/04/09 02:12:20;;;;;;;11.48;9.05;;;;;;;9.24;51.59;102505.47;1738803;82;21181;-48
2021/04/09 02:14:53;;;;;;;14.30;9.25;;;;;;;9.24;51.46;102505.47;1737568;82;21149;-50
2021/04/09 02:17:18;;;;;;;16.20;9.85;;;;;;;9.23;51.37;102506.76;1741250;82;21164;-50
2021/04/09 02:19:47;;;;;;;12.63;9.45;;;;;;;9.21;51.42;102510.61;1734616;82;21609;-46
2021/04/09 02:22:16;;;;;;;14.53;9.75;;;;;;;9.19;51.58;102508.88;1699698;84;21183;-49
2021/04/09 02:24:48;;;;;;;13.13;10.45;;;;;;;9.16;51.74;102508.41;1676801;84;21157;-51
2021/04/09 02:27:15;;;;;;;15.88;10.05;;;;;;;9.13;51.92;102510.11;1699555;84;21172;-52
2021/04/09 02:29:43;;;;;;;17.80;9.53;;;;;;;9.11;52.17;102507.47;1685110;85;21196;-46
2021/04/09 02:32:11;;;;;;;14.75;9.33;;;;;;;9.15;52.22;102509.25;1700245;84;21144;-48
2021/04/09 02:34:41;;;;;;;12.20;9.83;;;;;;;9.18;52.26;102506.70;1699781;84;21297;-48
2021/04/09 02:37:08;;;;;;;12.73;9.25;;;;;;;9.23;52.21;102512.83;1699764;84;21207;-46
2021/04/09 02:39:37;;;;;;;13.48;9.70;;;;;;;9.25;52.11;102510.25;1699780;84;21328;-48
2021/04/09 02:42:07;;;;;;;12.35;9.08;;;;;;;9.26;52.08;102512.85;1643583;84;21163;-47
2021/04/09 02:44:35;;;;;;;12.75;9.55;;;;;;;9.25;52.04;102516.32;1685159;85;21176;-46
2021/04/09 02:47:14;;;;;;;16.07;10.45;;;;;;;9.26;52.04;102514.57;1699939;84;21195;-45
2021/04/09 02:49:46;;;;;;;13.40;8.83;;;;;;;9.26;52.00;102519.34;1699720;84;21297;-45
2021/04/09 02:52:22;;;;;;;12.10;9.10;;;;;;;9.26;51.97;102523.24;1686105;83;21366;-49
2021/04/09 02:54:54;;;;;;;14.60;10.18;;;;;;;9.23;52.00;102523.22;1718388;83;21212;-50
2021/04/09 02:57:23;;;;;;;12.15;8.85;;;;;;;9.16;51.96;102526.59;1712230;83;21232;-48
2021/04/09 02:59:52;;;;;;;10.28;8.28;;;;;;;9.11;51.89;102528.24;1712402;83;21196;-48
2021/04/09 03:02:20;;;;;;;9.98;8.00;;;;;;;9.09;51.89;102529.95;1714283;83;21161;-51
2021/04/09 03:04:48;;;;;;;11.50;8.15;;;;;;;9.08;51.85;102532.12;1716603;83;21137;-46
2021/04/09 03:07:18;;;;;;;12.10;9.03;;;;;;;9.04;52.11;102529.03;1714432;82;21636;-45
2021/04/09 03:09:46;;;;;;;11.35;9.08;;;;;;;9.05;52.48;102531.22;1711962;83;21334;-49
2021/04/09 03:12:16;;;;;;;13.45;9.13;;;;;;;9.06;52.89;102529.05;1712085;83;21326;-49
2021/04/09 03:14:45;;;;;;;11.08;8.90;;;;;;;9.10;52.97;102530.41;1712474;83;21585;-45
2021/04/09 03:17:23;;;;;;;17.30;11.65;;;;;;;9.19;52.99;102541.34;1711674;83;21208;-48
2021/04/09 03:19:57;;;;;;;13.28;9.75;;;;;;;9.27;52.83;102539.29;1771573;79;23101;-48
2021/04/09 03:22:25;;;;;;;11.83;9.50;;;;;;;9.22;52.67;102544.84;1741339;82;21140;-48
2021/04/09 03:24:53;;;;;;;13.93;9.33;;;;;;;9.20;52.70;102544.37;1734868;82;21285;-46
2021/04/09 03:27:22;;;;;;;10.95;8.43;;;;;;;9.15;52.83;102544.31;1737030;82;21180;-49
2021/04/09 03:29:50;;;;;;;15.03;10.38;;;;;;;9.16;53.06;102547.36;1732056;82;21294;-47
2021/04/09 03:32:18;;;;;;;11.70;9.10;;;;;;;9.14;53.25;102546.48;1751150;82;21574;-45
2021/04/09 03:34:46;;;;;;;13.50;9.38;;;;;;;9.16;53.33;102547.78;1743542;82;21185;-47
2021/04/09 03:37:14;;;;;;;15.08;10.03;;;;;;;9.19;53.56;102550.44;1731983;82;21297;-46
2021/04/09 03:39:42;;;;;;;16.75;9.05;;;;;;;9.22;53.54;102543.54;1743841;82;21151;-48
2021/04/09 03:42:11;;;;;;;13.13;9.68;;;;;;;9.26;53.50;102549.22;1726724;82;21184;-50
2021/04/09 03:44:40;;;;;;;11.83;9.35;;;;;;;9.27;53.67;102553.58;1735156;82;21179;-46
2021/04/09 03:47:08;;;;;;;12.85;9.43;;;;;;;9.28;53.67;102560.50;1744685;82;21580;-45
2021/04/09 03:49:36;;;;;;;13.40;10.20;;;;;;;9.26;53.62;102562.20;1737078;82;21172;-48
2021/04/09 03:52:05;;;;;;;12.47;9.28;;;;;;;9.27;53.75;102569.16;1736885;82;21156;-51
2021/04/09 03:54:33;;;;;;;11.55;8.63;;;;;;;9.29;53.70;102569.17;1741752;82;21145;-45
2021/04/09 03:57:03;;;;;;;13.83;9.33;;;;;;;9.35;53.60;102565.34;1736513;82;21144;-48
2021/04/09 03:59:31;;;;;;;14.00;9.88;;;;;;;9.43;53.28;102571.08;1735690;81;21136;-48
2021/04/09 04:01:59;;;;;;;12.18;9.03;;;;;;;9.50;52.95;102574.63;1737050;82;21140;-46
2021/04/09 04:04:27;;;;;;;11.00;8.85;;;;;;;9.53;52.68;102575.53;1732151;82;21278;-47
2021/04/09 04:06:55;;;;;;;14.70;9.35;;;;;;;9.56;52.28;102578.14;1742718;82;21161;-48
2021/04/09 04:09:24;;;;;;;12.70;9.43;;;;;;;9.57;52.02;102579.91;1736706;82;21160;-45
2021/04/09 04:11:52;;;;;;;14.07;8.75;;;;;;;9.57;51.73;102579.91;1738194;82;21189;-48
2021/04/09 04:14:21;;;;;;;12.07;9.23;;;;;;;9.57;51.56;102585.10;1741213;82;21156;-50
2021/04/09 04:16:48;;;;;;;12.65;9.53;;;;;;;9.54;51.58;102587.65;1734089;82;21612;-46
2021/04/09 04:19:18;;;;;;;11.78;8.80;;;;;;;9.54;51.64;102590.25;1741750;81;21148;-45
2021/04/09 04:21:46;;;;;;;13.75;9.53;;;;;;;9.54;51.72;102595.45;1738320;82;21163;-45
2021/04/09 04:24:14;;;;;;;16.27;9.93;;;;;;;9.55;51.96;102594.61;1739342;82;21140;-49
2021/04/09 04:26:43;;;;;;;12.15;10.00;;;;;;;9.59;52.02;102597.69;1738982;82;21478;-47
2021/04/09 04:29:10;;;;;;;14.00;9.73;;;;;;;9.63;52.02;102603.36;1741020;82;21604;-50
2021/04/09 04:31:40;;;;;;;10.70;9.03;;;;;;;9.66;52.08;102603.41;1736378;82;21561;-45
2021/04/09 04:34:08;;;;;;;13.45;9.38;;;;;;;9.67;52.17;102606.44;1697417;83;21171;-45
2021/04/09 04:36:36;;;;;;;15.43;8.85;;;;;;;9.68;52.28;102609.50;1739314;82;21569;-49
2021/04/09 04:39:05;;;;;;;11.70;8.80;;;;;;;9.67;52.33;102605.14;1736243;82;21558;-45
2021/04/09 04:41:33;;;;;;;11.30;8.13;;;;;;;9.68;52.55;102616.00;1735088;80;21164;-45
2021/04/09 04:44:02;;;;;;;10.53;8.30;;;;;;;9.68;52.72;102612.10;1732278;82;21290;-49
2021/04/09 04:46:30;;;;;;;11.20;7.12;;;;;;;9.69;52.85;102613.83;1741625;82;21199;-50
2021/04/09 04:48:58;;;;;;;11.45;7.70;;;;;;;9.71;52.88;102614.72;1742333;82;21286;-48
2021/04/09 04:51:26;;;;;;;9.13;8.13;;;;;;;9.71;52.88;102616.02;1736879;82;21168;-48
2021/04/09 04:53:54;;;;;;;11.78;7.80;;;;;;;9.71;52.77;102621.22;1738962;82;21172;-45
2021/04/09 04:56:21;;;;;;;9.43;6.95;;;;;;;9.72;52.63;102621.67;1738135;82;21145;-49
2021/04/09 04:58:50;;;;;;;12.98;8.78;;;;;;;9.71;52.53;102624.23;1740562;82;21779;-50
2021/04/09 05:01:18;;;;;;;10.72;7.33;;;;;;;9.71;52.50;102629.02;1736548;82;21153;-45
2021/04/09 05:03:47;;;;;;;8.35;6.83;;;;;;;9.72;52.35;102629.47;1746606;81;21348;-45
2021/04/09 05:06:15;;;;;;;9.75;7.97;;;;;;;9.73;52.35;102633.80;1734942;82;21172;-50
2021/04/09 05:08:44;;;;;;;9.68;7.30;;;;;;;9.76;52.30;102633.85;1736754;82;21160;-45
2021/04/09 05:11:13;;;;;;;8.95;7.70;;;;;;;9.79;52.43;102636.47;1736475;82;21307;-47
2021/04/09 05:13:41;;;;;;;8.75;7.85;;;;;;;9.83;52.53;102636.95;1738987;82;21140;-49
2021/04/09 05:16:10;;;;;;;10.50;7.80;;;;;;;9.87;52.28;102643.49;1738946;82;22623;-47
2021/04/09 05:18:39;;;;;;;16.45;8.25;;;;;;;9.88;52.45;102645.22;1734840;82;21168;-48
2021/04/09 05:21:07;;;;;;;8.93;7.33;;;;;;;9.92;52.51;102642.68;1725463;82;21173;-49
2021/04/09 05:23:35;;;;;;;12.35;7.85;;;;;;;9.98;52.33;102652.27;1728031;82;21589;-50
2021/04/09 05:26:03;;;;;;;10.15;7.00;;;;;;;10.03;52.09;102653.20;1719294;82;21358;-48
2021/04/09 05:28:31;;;;;;;11.75;7.67;;;;;;;10.08;51.39;102655.41;1730808;81;21578;-48
2021/04/09 05:30:59;;;;;;;9.08;7.05;;;;;;;10.09;51.18;102653.27;1719882;82;21224;-47
2021/04/09 05:33:28;;;;;;;16.73;8.30;;;;;;;10.10;51.26;102662.83;1728847;82;21598;-49
2021/04/09 05:35:56;;;;;;;16.10;8.28;;;;;;;10.09;51.19;102666.27;1707486;82;21168;-50
2021/04/09 05:38:24;;;;;;;12.93;8.85;;;;;;;10.10;51.08;102665.43;1724912;82;21218;-47
2021/04/09 05:40:53;;;;;;;13.80;8.38;;;;;;;10.13;51.05;102674.58;1734305;82;21145;-49
2021/04/09 05:43:21;;;;;;;12.35;8.50;;;;;;;10.13;50.96;102669.38;1731285;82;21574;-48
2021/04/09 05:45:48;;;;;;;9.58;7.55;;;;;;;10.17;50.98;102672.45;1724210;82;21165;-48
2021/04/09 05:48:18;;;;;;;15.70;8.65;;;;;;;10.22;51.02;102673.39;1724124;82;21110;-48
2021/04/09 05:50:46;;;;;;;10.60;7.05;;;;;;;10.31;51.30;102676.06;1725717;82;21190;-46
2021/04/09 05:53:14;;;;;;;11.30;7.87;;;;;;;10.50;51.81;102676.27;1727460;82;21310;-45
2021/04/09 05:55:42;;;;;;;10.58;7.22;;;;;;;10.74;51.04;102679.48;1719236;82;21133;-49
2021/04/09 05:58:12;;;;;;;7.33;6.28;;;;;;;11.05;49.21;102678.86;1730721;82;21173;-48
2021/04/09 06:00:40;;;;;;;11.30;6.72;;;;;;;11.33;47.78;102683.38;1719142;82;21311;-45
2021/04/09 06:03:08;;;;;;;8.38;5.85;;;;;;;11.56;46.94;102683.95;1733682;82;21188;-49
2021/04/09 06:05:36;;;;;;;10.38;6.58;;;;;;;11.80;45.99;102681.47;1719815;82;21582;-50
2021/04/09 06:08:08;;;;;;;9.05;7.55;;;;;;;11.99;45.13;102683.28;1725269;82;21129;-45
2021/04/09 06:10:34;;;;;;;8.85;6.25;;;;;;;12.23;44.36;102686.83;1727334;82;21582;-49
2021/04/09 06:13:02;;;;;;;8.80;6.75;;;;;;;12.39;42.72;102687.71;1728421;82;21208;-49
2021/04/09 06:15:30;;;;;;;8.18;6.50;;;;;;;12.52;42.82;102688.17;1720411;82;21302;-47
2021/04/09 06:17:58;;;;;;;7.97;6.28;;;;;;;12.58;41.95;102688.17;1730656;82;21275;-50
2021/04/09 06:20:26;;;;;;;7.03;5.90;;;;;;;12.68;41.58;102693.83;1729968;82;21176;-50
2021/04/09 06:22:53;;;;;;;10.23;6.35;;;;;;;12.85;41.08;102694.72;1742735;82;21140;-46
2021/04/09 06:25:23;;;;;;;7.67;6.42;;;;;;;13.01;40.49;102701.67;1737382;82;21629;-49
2021/04/09 06:27:53;;;;;;;10.00;6.87;;;;;;;13.11;39.91;102703.86;1717166;82;21318;-49
2021/04/09 06:30:22;;;;;;;9.18;6.37;;;;;;;13.04;39.74;102711.28;1738024;82;21175;-48
2021/04/09 06:32:50;;;;;;;8.43;6.92;;;;;;;13.01;39.54;102709.50;1738959;82;21172;-46
2021/04/09 06:35:17;;;;;;;12.13;7.78;;;;;;;13.07;39.72;102713.88;1737432;82;21293;-49
2021/04/09 06:37:46;;;;;;;9.40;7.25;;;;;;;13.03;39.35;102714.30;1740407;82;21314;-50
2021/04/09 06:40:14;;;;;;;10.03;6.65;;;;;;;12.90;39.79;102723.46;1735331;82;21189;-46
2021/04/09 06:42:42;;;;;;;9.13;7.17;;;;;;;12.72;39.99;102724.31;1751364;82;21125;-49
2021/04/09 06:45:13;;;;;;;8.28;6.67;;;;;;;12.60;40.43;102721.69;1737920;82;21214;-48
2021/04/09 06:47:41;;;;;;;9.95;7.62;;;;;;;12.61;41.00;102728.64;1733168;82;21568;-47
2021/04/09 06:50:11;;;;;;;8.48;6.20;;;;;;;12.67;40.88;102725.19;1744756;82;21160;-47
2021/04/09 06:52:38;;;;;;;8.23;6.37;;;;;;;12.67;40.82;102728.67;1733263;80;21204;-50
2021/04/09 06:55:08;;;;;;;10.55;6.55;;;;;;;12.68;40.73;102729.52;1747838;82;21155;-46
2021/04/09 06:57:35;;;;;;;10.50;6.78;;;;;;;12.63;40.53;102732.13;1739285;82;21172;-45
2021/04/09 07:00:10;;;;;;;8.45;6.92;;;;;;;12.58;40.57;102731.69;1725231;82;21141;-49
2021/04/09 07:02:44;;;;;;;7.95;7.12;;;;;;;12.51;40.80;102729.96;1736513;82;21137;-45
2021/04/09 07:05:13;;;;;;;9.65;7.67;;;;;;;12.49;41.06;102739.07;1741712;82;21605;-47
2021/04/09 07:07:41;;;;;;;12.55;7.40;;;;;;;12.46;40.90;102731.67;1732933;82;21160;-48
2021/04/09 07:10:11;;;;;;;8.05;6.83;;;;;;;12.46;40.96;102736.90;1744533;82;21120;-45
2021/04/09 07:12:39;;;;;;;8.05;6.55;;;;;;;12.49;41.32;102740.38;1732866;82;21164;-47
2021/04/09 07:15:17;;;;;;;14.03;7.62;;;;;;;12.63;41.51;102742.57;1738637;82;21144;-45
2021/04/09 07:17:47;;;;;;;10.15;6.90;;;;;;;12.80;41.01;102741.28;1733451;82;21330;-50
2021/04/09 07:20:24;;;;;;;10.58;8.20;;;;;;;12.89;41.13;102746.09;1730040;82;21131;-49
2021/04/09 07:22:56;;;;;;;10.45;7.15;;;;;;;13.00;40.92;102746.95;1743346;81;21191;-50
2021/04/09 07:25:27;;;;;;;11.10;7.30;;;;;;;13.06;41.05;102746.98;1651322;86;21197;-45
2021/04/09 07:28:23;;;;;;;9.18;7.10;;;;;;;13.19;40.84;102745.69;1658583;86;21664;-46
2021/04/09 07:30:54;;;;;;;12.85;7.60;;;;;;;13.28;40.46;102743.05;1658263;86;21154;-49
2021/04/09 07:33:25;;;;;;;12.20;7.55;;;;;;;13.32;39.70;102746.97;1658358;86;21692;-48
2021/04/09 07:35:58;;;;;;;9.28;7.78;;;;;;;13.28;39.83;102748.27;1658257;86;21233;-48
2021/04/09 07:38:31;;;;;;;12.00;7.95;;;;;;;13.21;39.78;102747.87;1658298;86;21213;-47
2021/04/09 07:41:02;;;;;;;9.73;6.95;;;;;;;13.11;40.38;102746.13;1658906;86;21624;-48
2021/04/09 07:43:40;;;;;;;8.23;7.40;;;;;;;13.03;40.89;102745.66;1658368;86;21237;-44
2021/04/09 07:46:24;;;;;;;8.60;7.15;;;;;;;13.04;40.61;102745.27;1658428;86;21208;-48
2021/04/09 07:49:04;;;;;;;9.63;7.80;;;;;;;13.08;40.64;102747.43;1774478;79;23444;-50
2021/04/09 07:51:33;;;;;;;9.98;7.85;;;;;;;12.99;40.33;102749.57;1741090;82;21160;-50
2021/04/09 07:54:12;;;;;;;9.13;7.37;;;;;;;12.95;40.38;102750.02;1741074;82;21163;-49
2021/04/09 07:56:43;;;;;;;13.08;7.62;;;;;;;12.93;40.99;102753.06;1741061;82;21157;-49
2021/04/09 07:59:11;;;;;;;11.33;7.65;;;;;;;12.97;40.99;102758.72;1739108;82;21201;-48
2021/04/09 08:01:48;;;;;;;10.15;8.08;;;;;;;12.97;40.97;102754.80;1738689;82;21140;-46
2021/04/09 08:04:16;;;;;;;12.20;7.65;;;;;;;12.97;41.20;102749.58;1736032;82;21148;-50
2021/04/09 08:06:44;;;;;;;10.58;7.55;;;;;;;12.99;41.08;102756.98;1734962;82;21172;-45
2021/04/09 08:09:12;;;;;;;11.83;6.53;;;;;;;13.02;41.00;102755.66;1738330;82;21205;-49
2021/04/09 08:11:40;;;;;;;7.53;6.37;;;;;;;13.08;40.43;102754.38;1747175;82;21136;-45
2021/04/09 08:14:13;;;;;;;11.83;7.35;;;;;;;13.14;40.30;102749.61;1741045;82;21156;-46
2021/04/09 08:16:45;;;;;;;12.13;7.35;;;;;;;13.17;39.91;102747.44;1740949;82;21153;-49
2021/04/09 08:19:21;;;;;;;10.55;7.17;;;;;;;13.22;40.65;102743.94;1739409;82;21310;-49
2021/04/09 08:21:51;;;;;;;12.20;7.30;;;;;;;13.33;40.40;102743.92;1745421;82;21184;-49
2021/04/09 08:24:28;;;;;;;9.50;7.50;;;;;;;13.38;40.26;102742.16;1738457;82;21156;-48
2021/04/09 08:26:57;;;;;;;7.80;6.08;;;;;;;13.40;40.25;102743.91;1727872;82;21156;-50
2021/04/09 08:29:28;;;;;;;8.03;6.30;;;;;;;13.45;40.39;102742.59;1741255;82;21321;-50
2021/04/09 08:31:56;;;;;;;9.10;6.67;;;;;;;13.51;40.06;102738.22;1737013;82;21164;-47
2021/04/09 08:34:24;;;;;;;8.53;6.90;;;;;;;13.56;40.06;102738.22;1737667;82;21201;-49
2021/04/09 08:36:51;;;;;;;9.45;7.20;;;;;;;13.61;40.07;102735.13;1738096;82;21553;-51
2021/04/09 08:39:21;;;;;;;9.80;7.05;;;;;;;13.69;39.89;102739.91;1734073;82;21132;-47
2021/04/09 08:41:50;;;;;;;10.10;7.28;;;;;;;13.76;40.08;102736.41;1731200;82;21297;-46
2021/04/09 08:44:19;;;;;;;11.70;6.67;;;;;;;13.80;39.27;102728.55;1740117;82;21105;-46
2021/04/09 08:46:47;;;;;;;6.72;5.15;;;;;;;13.83;39.76;102736.37;1726548;82;21291;-50
2021/04/09 08:49:16;;;;;;;10.90;6.05;;;;;;;13.88;38.61;102735.05;1738211;81;21140;-52
2021/04/09 08:51:45;;;;;;;5.80;5.25;;;;;;;13.93;37.86;102737.19;1739753;82;21145;-49
2021/04/09 08:57:04;;;;;;;5.55;4.12;;;;;;;14.11;36.12;102732.33;1773662;79;23606;-50
2021/04/09 08:59:47;;;;;;;5.00;3.35;;;;;;;14.10;34.87;102730.14;1747772;82;21170;-45
2021/04/09 09:02:21;;;;;;;3.90;3.30;;;;;;;14.14;35.09;102727.94;1737031;82;21179;-46
2021/04/09 09:05:14;;;;;;;8.78;4.45;;;;;;;14.20;34.69;102729.20;1741015;82;21144;-46
2021/04/09 09:07:51;;;;;;;5.12;3.95;;;;;;;14.26;34.79;102729.17;1621625;87;21637;-46
2021/04/09 09:10:36;;;;;;;5.72;3.87;;;;;;;14.32;35.31;102733.09;1632748;87;21200;-46
2021/04/09 09:13:16;;;;;;;5.75;3.33;;;;;;;14.39;34.99;102738.74;1632864;87;21259;-45
2021/04/09 09:15:55;;;;;;;5.37;3.87;;;;;;;14.44;34.13;102734.36;1617218;89;21184;-49
2021/04/09 09:18:28;;;;;;;5.45;4.40;;;;;;;14.45;34.70;102733.47;1633018;87;21237;-46
2021/04/09 09:21:20;;;;;;;5.30;3.92;;;;;;;14.45;34.46;102734.77;1632733;86;21307;-48
2021/04/09 09:24:18;;;;;;;6.55;5.00;;;;;;;14.44;35.08;102738.29;1631712;87;21168;-46
2021/04/09 09:26:48;;;;;;;7.83;4.33;;;;;;;14.46;35.25;102740.45;1629421;86;21676;-47
2021/04/09 09:29:26;;;;;;;5.43;4.27;;;;;;;14.50;34.77;102731.70;1635476;86;21208;-51
2021/04/09 09:32:05;;;;;;;5.60;3.90;;;;;;;14.52;34.07;102732.55;1629103;87;21208;-46
2021/04/09 09:34:40;;;;;;;6.28;3.90;;;;;;;14.50;33.38;102726.46;1635826;86;21197;-48
2021/04/09 09:37:22;;;;;;;4.37;3.47;;;;;;;14.48;34.24;102730.84;1630915;86;21184;-46
2021/04/09 09:40:01;;;;;;;4.40;3.25;;;;;;;14.51;33.69;102727.30;1632679;86;21322;-47
2021/04/09 09:42:34;;;;;;;4.72;3.77;;;;;;;14.54;33.72;102733.41;1618490;86;21209;-51
2021/04/09 09:45:05;;;;;;;4.00;3.25;;;;;;;14.58;32.99;102724.66;1634863;87;21212;-49
2021/04/09 09:47:35;;;;;;;6.20;3.55;;;;;;;14.58;33.65;102732.52;1632263;86;21636;-47
2021/04/09 09:50:10;;;;;;;4.55;3.62;;;;;;;14.57;32.88;102725.52;1630149;86;21185;-46
2021/04/09 09:53:03;;;;;;;5.20;3.87;;;;;;;14.57;32.94;102730.76;1629907;86;21192;-48
2021/04/09 09:55:52;;;;;;;5.60;3.75;;;;;;;14.56;33.08;102731.66;1643311;86;21313;-45
2021/04/09 09:58:26;;;;;;;3.47;3.17;;;;;;;14.55;33.88;102735.14;1661795;84;21157;-51
2021/04/09 10:01:00;;;;;;;6.40;3.67;;;;;;;14.60;33.18;102730.75;1658475;84;21144;-50
2021/04/09 10:03:35;;;;;;;3.22;2.98;;;;;;;14.65;32.79;102726.33;1674682;83;21235;-47
2021/04/09 10:08:46;;;;;;;3.27;2.80;;;;;;;14.71;32.06;102721.94;1630082;87;21222;-49
2021/04/09 10:11:19;;;;;;;5.55;3.35;;;;;;;14.74;32.43;102717.53;1611926;89;21191;-49
2021/04/09 10:13:50;;;;;;;3.72;3.17;;;;;;;14.78;31.96;102713.12;1640849;87;21391;-46
2021/04/09 10:16:22;;;;;;;3.55;3.25;;;;;;;14.82;31.25;102714.87;1640951;87;21840;-49
2021/04/09 10:18:53;;;;;;;3.55;3.00;;;;;;;14.86;31.49;102713.97;1608666;89;21389;-49
2021/04/09 10:21:31;;;;;;;3.30;3.02;;;;;;;14.89;31.91;102708.68;1628359;87;21804;-49
2021/04/09 10:24:28;;;;;;;4.00;3.37;;;;;;;15.00;32.05;102699.83;1799282;78;22926;-49
2021/04/09 10:27:02;;;;;;;4.50;3.37;;;;;;;15.02;32.06;102712.94;1713489;83;21597;-47
2021/04/09 10:29:37;;;;;;;5.78;3.35;;;;;;;15.10;31.34;102707.19;1668651;84;21243;-45
2021/04/09 10:32:18;;;;;;;5.50;3.30;;;;;;;15.13;30.89;102707.14;1670990;84;21252;-49
2021/04/09 10:34:52;;;;;;;3.50;2.95;;;;;;;15.16;30.85;102707.13;1680361;84;21163;-47
2021/04/09 10:37:26;;;;;;;7.53;3.70;;;;;;;15.19;30.79;102703.14;1589184;89;21361;-45
2021/04/09 10:39:59;;;;;;;3.90;3.50;;;;;;;15.24;30.74;102689.12;1792269;79;28590;-46
2021/04/09 10:42:28;;;;;;;3.30;2.95;;;;;;;15.25;30.33;102690.84;1728038;80;21140;-48
2021/04/09 10:44:56;;;;;;;3.52;2.87;;;;;;;15.35;29.98;102695.57;1774268;80;21160;-49
2021/04/09 10:47:25;;;;;;;3.33;3.02;;;;;;;15.42;29.88;102690.66;1745072;80;21120;-46
2021/04/09 10:49:55;;;;;;;4.47;2.87;;;;;;;15.51;30.18;102685.80;1765275;80;21128;-49
2021/04/09 10:52:25;;;;;;;3.47;2.80;;;;;;;15.59;29.72;102688.76;1765022;80;21171;-46
2021/04/09 10:55:00;;;;;;;5.05;3.02;;;;;;;15.66;28.70;102687.78;1769176;80;21097;-46
2021/04/09 10:57:28;;;;;;;4.17;3.25;;;;;;;15.73;29.75;102684.20;1766122;80;21274;-48
2021/04/09 10:59:57;;;;;;;5.22;3.67;;;;;;;15.80;30.25;102681.95;1743105;80;21601;-49
2021/04/09 11:02:26;;;;;;;7.08;3.67;;;;;;;15.83;29.82;102680.58;1770985;80;21144;-46
2021/04/09 11:04:59;;;;;;;4.65;4.15;;;;;;;15.83;29.81;102680.58;1775121;80;21154;-46
2021/04/09 11:07:48;;;;;;;5.22;4.00;;;;;;;15.76;29.92;102677.63;1772493;80;21147;-46
2021/04/09 11:10:35;;;;;;;4.55;4.10;;;;;;;15.66;30.64;102683.84;1771635;80;21105;-45
2021/04/09 11:13:07;;;;;;;5.60;4.62;;;;;;;15.56;31.09;102684.84;1707193;83;21139;-46
2021/04/09 11:15:43;;;;;;;4.78;4.22;;;;;;;15.50;31.72;102688.86;1712173;83;21151;-48
2021/04/09 11:18:13;;;;;;;4.92;4.25;;;;;;;15.47;31.93;102683.66;1711840;83;21251;-50
2021/04/09 11:20:45;;;;;;;4.78;3.95;;;;;;;15.44;31.76;102683.24;1711794;83;21639;-49
2021/04/09 11:23:19;;;;;;;4.58;3.95;;;;;;;15.41;31.54;102681.08;1771652;79;23092;-46
2021/04/09 11:25:49;;;;;;;5.03;4.20;;;;;;;15.31;31.58;102690.77;1732079;82;21118;-46
2021/04/09 11:28:28;;;;;;;5.55;4.22;;;;;;;15.27;32.08;102680.36;1743540;82;21530;-48
2021/04/09 11:31:03;;;;;;;6.60;3.75;;;;;;;15.23;31.14;102676.00;1733479;81;21133;-46
2021/04/09 11:33:35;;;;;;;4.70;3.87;;;;;;;15.23;31.66;102678.63;1742693;82;21166;-49
2021/04/09 11:36:19;;;;;;;4.58;3.65;;;;;;;15.32;32.21;102682.04;1736314;82;21581;-49
2021/04/09 11:38:51;;;;;;;4.12;3.42;;;;;;;15.42;32.36;102676.23;1690944;84;21189;-46
2021/04/09 11:41:30;;;;;;;6.85;5.22;;;;;;;15.63;32.28;102662.91;1765870;79;28223;-49
2021/04/09 11:44:01;;;;;;;6.33;4.17;;;;;;;15.77;30.88;102664.91;1744586;82;21109;-49
2021/04/09 11:46:35;;;;;;;5.03;3.72;;;;;;;15.92;31.31;102666.03;1735516;82;21137;-51
2021/04/09 11:49:07;;;;;;;5.58;4.20;;;;;;;16.01;31.59;102664.56;1696572;84;21216;-46